Terminal Aerodrome Forecast
Issued by NWS

Home | Current Version | Previous Version | Text Only | Print | Product List | Glossary On
Versions: 1 2 3 4 5 6 7 8 9 10 11 12 13 14 15 16 17 18 19 20 21 22 23 24 25 26 27 28 29 30
000
FTUS41 KCTP 181325 AAB
TAFJST
TAF AMD
KJST 181325Z 1813/1912 20007KT 2SM -RA BR OVC003
     FM181400 20009KT 5SM -SHRA BR SCT005 BKN010 OVC035
     FM181600 25008G15KT P6SM VCSH SCT025 BKN035
     FM181700 24008KT P6SM VCTS SCT020 BKN040CB
     FM182100 26009KT P6SM BKN035
     FM190300 28009KT 5SM BR BKN009 OVC015=

USA.gov is the U.S. government's official web portal to all federal, state and local government web resources and services.